sensor_id;sensor_type;location;lat;lon;timestamp;pressure;altitude;pressure_sealevel;temperature;humidity
80627;BME280;69982;51.758;5.784;2024-03-06T00:01:28;101736.40;;;8.53;75.49
80627;BME280;69982;51.758;5.784;2024-03-06T00:04:16;101740.89;;;8.44;75.53
80627;BME280;69982;51.758;5.784;2024-03-06T00:06:53;101744.00;;;8.35;75.43
80627;BME280;69982;51.758;5.784;2024-03-06T00:15:46;101753.28;;;8.15;75.55
80627;BME280;69982;51.758;5.784;2024-03-06T00:25:36;101761.00;;;8.04;75.26
80627;BME280;69982;51.758;5.784;2024-03-06T00:29:17;101766.38;;;8.00;75.35
80627;BME280;69982;51.758;5.784;2024-03-06T00:31:46;101765.56;;;7.99;75.55
80627;BME280;69982;51.758;5.784;2024-03-06T00:40:34;101763.25;;;7.90;75.06
80627;BME280;69982;51.758;5.784;2024-03-06T00:43:03;101775.82;;;7.82;74.99
80627;BME280;69982;51.758;5.784;2024-03-06T00:49:14;101783.54;;;7.67;75.34
80627;BME280;69982;51.758;5.784;2024-03-06T00:51:48;101781.11;;;7.59;75.59
80627;BME280;69982;51.758;5.784;2024-03-06T00:54:16;101784.11;;;7.53;75.75
80627;BME280;69982;51.758;5.784;2024-03-06T00:56:47;101782.79;;;7.48;75.70
80627;BME280;69982;51.758;5.784;2024-03-06T00:59:14;101784.67;;;7.42;75.54
80627;BME280;69982;51.758;5.784;2024-03-06T01:02:04;101788.18;;;7.39;75.37
80627;BME280;69982;51.758;5.784;2024-03-06T01:04:33;101788.67;;;7.37;75.47
80627;BME280;69982;51.758;5.784;2024-03-06T01:07:07;101791.41;;;7.37;75.41
80627;BME280;69982;51.758;5.784;2024-03-06T01:09:40;101787.94;;;7.37;75.63
80627;BME280;69982;51.758;5.784;2024-03-06T01:12:35;101792.41;;;7.42;75.56
80627;BME280;69982;51.758;5.784;2024-03-06T01:15:15;101796.62;;;7.46;75.51
80627;BME280;69982;51.758;5.784;2024-03-06T01:17:45;101801.14;;;7.46;75.29
80627;BME280;69982;51.758;5.784;2024-03-06T01:20:17;101800.77;;;7.43;75.46
80627;BME280;69982;51.758;5.784;2024-03-06T01:22:48;101802.95;;;7.41;75.32
80627;BME280;69982;51.758;5.784;2024-03-06T01:25:26;101805.50;;;7.36;75.13
80627;BME280;69982;51.758;5.784;2024-03-06T01:28:02;101805.49;;;7.32;75.45
80627;BME280;69982;51.758;5.784;2024-03-06T01:30:32;101808.93;;;7.27;75.33
80627;BME280;69982;51.758;5.784;2024-03-06T01:33:19;101806.20;;;7.21;75.39
80627;BME280;69982;51.758;5.784;2024-03-06T01:35:53;101807.92;;;7.12;75.38
80627;BME280;69982;51.758;5.784;2024-03-06T01:38:21;101810.00;;;7.06;75.44
80627;BME280;69982;51.758;5.784;2024-03-06T01:41:09;101816.22;;;7.00;75.49
80627;BME280;69982;51.758;5.784;2024-03-06T01:43:38;101814.23;;;6.94;75.38
80627;BME280;69982;51.758;5.784;2024-03-06T01:46:35;101809.08;;;6.88;75.39
80627;BME280;69982;51.758;5.784;2024-03-06T01:49:15;101806.36;;;6.84;75.36
80627;BME280;69982;51.758;5.784;2024-03-06T01:51:56;101812.98;;;6.82;75.33
80627;BME280;69982;51.758;5.784;2024-03-06T01:57:22;101818.42;;;6.75;75.18
80627;BME280;69982;51.758;5.784;2024-03-06T02:00:09;101825.52;;;6.71;75.29
80627;BME280;69982;51.758;5.784;2024-03-06T02:02:49;101825.27;;;6.67;75.19
80627;BME280;69982;51.758;5.784;2024-03-06T02:05:20;101829.59;;;6.62;74.76
80627;BME280;69982;51.758;5.784;2024-03-06T02:08:04;101828.48;;;6.54;74.99
80627;BME280;69982;51.758;5.784;2024-03-06T02:10:49;101834.77;;;6.44;74.93
80627;BME280;69982;51.758;5.784;2024-03-06T02:13:24;101836.36;;;6.32;74.99
80627;BME280;69982;51.758;5.784;2024-03-06T02:15:56;101842.23;;;6.24;75.14
80627;BME280;69982;51.758;5.784;2024-03-06T02:18:23;101843.89;;;6.16;75.84
80627;BME280;69982;51.758;5.784;2024-03-06T02:21:15;101845.05;;;6.10;75.98
80627;BME280;69982;51.758;5.784;2024-03-06T02:23:45;101846.56;;;6.04;75.81
80627;BME280;69982;51.758;5.784;2024-03-06T02:26:12;101845.89;;;5.96;75.83
80627;BME280;69982;51.758;5.784;2024-03-06T02:28:48;101849.86;;;5.89;76.04
80627;BME280;69982;51.758;5.784;2024-03-06T02:31:21;101851.33;;;5.83;76.11
80627;BME280;69982;51.758;5.784;2024-03-06T02:33:51;101848.73;;;5.81;76.29
80627;BME280;69982;51.758;5.784;2024-03-06T02:36:19;101850.46;;;5.82;76.44
80627;BME280;69982;51.758;5.784;2024-03-06T02:38:49;101852.79;;;5.82;76.44
80627;BME280;69982;51.758;5.784;2024-03-06T02:41:16;101847.73;;;5.85;76.47
80627;BME280;69982;51.758;5.784;2024-03-06T02:43:47;101850.69;;;5.90;76.26
80627;BME280;69982;51.758;5.784;2024-03-06T02:46:15;101852.14;;;5.92;76.29
80627;BME280;69982;51.758;5.784;2024-03-06T02:48:46;101855.56;;;5.92;76.49
80627;BME280;69982;51.758;5.784;2024-03-06T02:51:21;101858.76;;;5.93;76.46
80627;BME280;69982;51.758;5.784;2024-03-06T02:53:49;101855.98;;;5.91;76.28
80627;BME280;69982;51.758;5.784;2024-03-06T02:56:19;101853.54;;;5.90;76.38
80627;BME280;69982;51.758;5.784;2024-03-06T02:59:06;101854.38;;;5.88;76.15
80627;BME280;69982;51.758;5.784;2024-03-06T03:01:54;101851.45;;;5.83;76.25
80627;BME280;69982;51.758;5.784;2024-03-06T03:04:25;101854.18;;;5.78;76.34
80627;BME280;69982;51.758;5.784;2024-03-06T03:06:55;101854.27;;;5.72;76.30
80627;BME280;69982;51.758;5.784;2024-03-06T03:09:48;101854.91;;;5.61;76.52
80627;BME280;69982;51.758;5.784;2024-03-06T03:12:15;101860.97;;;5.54;76.47
80627;BME280;69982;51.758;5.784;2024-03-06T03:15:04;101858.63;;;5.46;76.64
80627;BME280;69982;51.758;5.784;2024-03-06T03:17:54;101858.73;;;5.37;76.72
80627;BME280;69982;51.758;5.784;2024-03-06T03:20:21;101857.33;;;5.34;77.14
80627;BME280;69982;51.758;5.784;2024-03-06T03:22:48;101855.37;;;5.34;77.01
80627;BME280;69982;51.758;5.784;2024-03-06T03:25:15;101860.52;;;5.35;76.97
80627;BME280;69982;51.758;5.784;2024-03-06T03:27:42;101863.45;;;5.36;76.86
80627;BME280;69982;51.758;5.784;2024-03-06T03:30:13;101860.91;;;5.39;76.82
80627;BME280;69982;51.758;5.784;2024-03-06T03:32:42;101864.89;;;5.44;76.89
80627;BME280;69982;51.758;5.784;2024-03-06T03:35:12;101862.24;;;5.48;76.68
80627;BME280;69982;51.758;5.784;2024-03-06T03:37:46;101873.47;;;5.49;76.72
80627;BME280;69982;51.758;5.784;2024-03-06T03:40:13;101866.69;;;5.52;76.86
80627;BME280;69982;51.758;5.784;2024-03-06T03:42:40;101864.16;;;5.52;76.48
80627;BME280;69982;51.758;5.784;2024-03-06T03:45:07;101870.63;;;5.49;76.59
80627;BME280;69982;51.758;5.784;2024-03-06T03:47:34;101869.85;;;5.45;76.41
80627;BME280;69982;51.758;5.784;2024-03-06T03:50:01;101870.56;;;5.38;76.45
80627;BME280;69982;51.758;5.784;2024-03-06T03:52:29;101871.79;;;5.28;76.54
80627;BME280;69982;51.758;5.784;2024-03-06T03:54:57;101872.38;;;5.19;76.69
80627;BME280;69982;51.758;5.784;2024-03-06T03:57:24;101876.64;;;5.10;76.69
80627;BME280;69982;51.758;5.784;2024-03-06T03:59:54;101879.73;;;4.99;76.61
80627;BME280;69982;51.758;5.784;2024-03-06T04:02:28;101881.76;;;4.93;76.64
80627;BME280;69982;51.758;5.784;2024-03-06T04:04:55;101886.13;;;4.92;76.32
80627;BME280;69982;51.758;5.784;2024-03-06T04:07:22;101885.22;;;4.89;76.05
80627;BME280;69982;51.758;5.784;2024-03-06T04:09:49;101881.80;;;4.84;76.18
80627;BME280;69982;51.758;5.784;2024-03-06T04:12:16;101880.67;;;4.80;76.01
80627;BME280;69982;51.758;5.784;2024-03-06T04:14:50;101883.55;;;4.74;76.09
80627;BME280;69982;51.758;5.784;2024-03-06T04:17:17;101881.48;;;4.68;76.32
80627;BME280;69982;51.758;5.784;2024-03-06T04:19:49;101882.10;;;4.62;76.37
80627;BME280;69982;51.758;5.784;2024-03-06T04:22:21;101885.06;;;4.54;76.65
80627;BME280;69982;51.758;5.784;2024-03-06T04:24:47;101887.37;;;4.47;77.09
80627;BME280;69982;51.758;5.784;2024-03-06T04:27:15;101888.64;;;4.41;77.14
80627;BME280;69982;51.758;5.784;2024-03-06T04:29:43;101886.32;;;4.36;77.28
80627;BME280;69982;51.758;5.784;2024-03-06T04:32:12;101888.77;;;4.31;77.46
80627;BME280;69982;51.758;5.784;2024-03-06T04:34:41;101886.22;;;4.26;77.65
80627;BME280;69982;51.758;5.784;2024-03-06T04:37:08;101892.41;;;4.19;77.89
80627;BME280;69982;51.758;5.784;2024-03-06T04:39:35;101892.67;;;4.13;77.90
80627;BME280;69982;51.758;5.784;2024-03-06T04:42:07;101894.56;;;4.08;78.01
80627;BME280;69982;51.758;5.784;2024-03-06T04:44:38;101897.16;;;4.07;77.93
80627;BME280;69982;51.758;5.784;2024-03-06T04:47:09;101901.31;;;4.06;77.68
80627;BME280;69982;51.758;5.784;2024-03-06T04:49:37;101903.73;;;4.05;77.77
80627;BME280;69982;51.758;5.784;2024-03-06T04:52:05;101908.34;;;4.06;78.03
80627;BME280;69982;51.758;5.784;2024-03-06T04:55:01;101908.48;;;4.07;77.93
80627;BME280;69982;51.758;5.784;2024-03-06T04:57:34;101910.78;;;4.07;78.11
80627;BME280;69982;51.758;5.784;2024-03-06T05:00:13;101908.69;;;4.06;78.02
80627;BME280;69982;51.758;5.784;2024-03-06T05:02:48;101912.31;;;4.05;78.20
80627;BME280;69982;51.758;5.784;2024-03-06T05:05:42;101919.08;;;4.06;78.10
80627;BME280;69982;51.758;5.784;2024-03-06T05:08:32;101922.74;;;4.08;78.37
80627;BME280;69982;51.758;5.784;2024-03-06T05:11:46;101930.52;;;4.07;78.31
80627;BME280;69982;51.758;5.784;2024-03-06T05:15:04;101940.17;;;4.04;78.35
80627;BME280;69982;51.758;5.784;2024-03-06T05:18:05;101945.70;;;4.01;78.47
80627;BME280;69982;51.758;5.784;2024-03-06T05:21:07;101946.45;;;3.98;78.61
80627;BME280;69982;51.758;5.784;2024-03-06T05:24:04;101951.31;;;3.95;78.60
80627;BME280;69982;51.758;5.784;2024-03-06T05:26:56;101957.77;;;3.92;78.56
80627;BME280;69982;51.758;5.784;2024-03-06T05:29:42;101961.29;;;3.90;78.71
80627;BME280;69982;51.758;5.784;2024-03-06T05:32:31;101967.41;;;3.93;78.86
80627;BME280;69982;51.758;5.784;2024-03-06T05:35:19;101975.88;;;4.00;78.75
80627;BME280;69982;51.758;5.784;2024-03-06T05:38:04;101978.14;;;4.10;78.74
80627;BME280;69982;51.758;5.784;2024-03-06T05:40:49;101980.86;;;4.20;79.02
80627;BME280;69982;51.758;5.784;2024-03-06T05:43:33;101979.66;;;4.31;79.12
80627;BME280;69982;51.758;5.784;2024-03-06T05:46:28;101977.83;;;4.40;79.14
80627;BME280;69982;51.758;5.784;2024-03-06T05:49:15;101982.14;;;4.48;79.23
80627;BME280;69982;51.758;5.784;2024-03-06T05:52:00;101986.26;;;4.53;79.25
80627;BME280;69982;51.758;5.784;2024-03-06T05:54:51;101989.83;;;4.57;79.44
80627;BME280;69982;51.758;5.784;2024-03-06T05:57:35;101993.20;;;4.57;79.75
80627;BME280;69982;51.758;5.784;2024-03-06T06:00:20;101997.59;;;4.53;80.23
80627;BME280;69982;51.758;5.784;2024-03-06T06:02:48;102002.07;;;4.50;80.54
80627;BME280;69982;51.758;5.784;2024-03-06T06:05:19;102007.16;;;4.49;80.79
80627;BME280;69982;51.758;5.784;2024-03-06T06:07:49;102005.18;;;4.55;81.72
80627;BME280;69982;51.758;5.784;2024-03-06T06:10:18;102014.09;;;4.62;81.48
80627;BME280;69982;51.758;5.784;2024-03-06T06:12:53;102012.91;;;4.69;81.36
80627;BME280;69982;51.758;5.784;2024-03-06T06:15:19;102020.77;;;4.74;81.65
80627;BME280;69982;51.758;5.784;2024-03-06T06:17:46;102024.63;;;4.81;81.44
80627;BME280;69982;51.758;5.784;2024-03-06T06:20:16;102026.18;;;4.88;81.44
80627;BME280;69982;51.758;5.784;2024-03-06T06:23:01;102029.80;;;4.93;81.67
80627;BME280;69982;51.758;5.784;2024-03-06T06:25:29;102036.52;;;4.97;81.43
80627;BME280;69982;51.758;5.784;2024-03-06T06:28:16;102035.48;;;4.99;80.84
80627;BME280;69982;51.758;5.784;2024-03-06T06:30:49;102036.77;;;4.99;80.90
80627;BME280;69982;51.758;5.784;2024-03-06T06:33:24;102040.36;;;4.96;81.15
80627;BME280;69982;51.758;5.784;2024-03-06T06:35:55;102040.03;;;4.93;81.44
80627;BME280;69982;51.758;5.784;2024-03-06T06:38:22;102046.79;;;4.91;81.12
80627;BME280;69982;51.758;5.784;2024-03-06T06:41:01;102054.07;;;4.89;81.50
80627;BME280;69982;51.758;5.784;2024-03-06T06:43:50;102056.17;;;4.90;81.35
80627;BME280;69982;51.758;5.784;2024-03-06T06:46:19;102054.63;;;4.92;81.58
80627;BME280;69982;51.758;5.784;2024-03-06T06:48:49;102062.46;;;4.95;81.63
80627;BME280;69982;51.758;5.784;2024-03-06T06:51:26;102066.37;;;5.01;81.74
80627;BME280;69982;51.758;5.784;2024-03-06T06:54:05;102070.52;;;5.06;81.59
80627;BME280;69982;51.758;5.784;2024-03-06T06:56:47;102075.64;;;5.08;81.45
80627;BME280;69982;51.758;5.784;2024-03-06T06:59:17;102079.92;;;5.08;81.42
80627;BME280;69982;51.758;5.784;2024-03-06T07:01:51;102082.36;;;5.06;81.13
80627;BME280;69982;51.758;5.784;2024-03-06T07:04:19;102085.26;;;5.06;81.34
80627;BME280;69982;51.758;5.784;2024-03-06T07:06:49;102085.15;;;5.05;81.53
80627;BME280;69982;51.758;5.784;2024-03-06T07:09:41;102090.48;;;5.03;81.74
80627;BME280;69982;51.758;5.784;2024-03-06T07:12:16;102092.25;;;4.98;81.84
80627;BME280;69982;51.758;5.784;2024-03-06T07:14:49;102094.79;;;4.98;82.10
80627;BME280;69982;51.758;5.784;2024-03-06T07:17:19;102094.44;;;5.00;82.15
80627;BME280;69982;51.758;5.784;2024-03-06T07:20:14;102098.18;;;5.06;82.18
80627;BME280;69982;51.758;5.784;2024-03-06T07:22:49;102103.07;;;5.11;82.42
80627;BME280;69982;51.758;5.784;2024-03-06T07:25:25;102106.88;;;5.15;82.62
80627;BME280;69982;51.758;5.784;2024-03-06T07:28:07;102108.01;;;5.20;82.64
80627;BME280;69982;51.758;5.784;2024-03-06T07:30:33;102112.96;;;5.24;83.03
80627;BME280;69982;51.758;5.784;2024-03-06T07:33:24;102116.48;;;5.28;83.00
80627;BME280;69982;51.758;5.784;2024-03-06T07:35:52;102122.98;;;5.30;83.17
80627;BME280;69982;51.758;5.784;2024-03-06T07:38:19;102123.71;;;5.32;83.09
80627;BME280;69982;51.758;5.784;2024-03-06T07:40:47;102126.02;;;5.30;83.11
80627;BME280;69982;51.758;5.784;2024-03-06T07:43:14;102129.64;;;5.27;82.91
80627;BME280;69982;51.758;5.784;2024-03-06T07:45:41;102133.46;;;5.26;83.15
80627;BME280;69982;51.758;5.784;2024-03-06T07:48:17;102133.11;;;5.26;83.24
80627;BME280;69982;51.758;5.784;2024-03-06T07:50:49;102135.98;;;5.29;83.24
80627;BME280;69982;51.758;5.784;2024-03-06T07:53:30;102137.06;;;5.34;83.32
80627;BME280;69982;51.758;5.784;2024-03-06T07:55:57;102141.52;;;5.37;83.31
80627;BME280;69982;51.758;5.784;2024-03-06T07:58:30;102143.38;;;5.39;83.39
80627;BME280;69982;51.758;5.784;2024-03-06T08:01:01;102140.00;;;5.41;83.36
80627;BME280;69982;51.758;5.784;2024-03-06T08:03:33;102139.15;;;5.40;83.22
80627;BME280;69982;51.758;5.784;2024-03-06T08:06:00;102148.07;;;5.39;83.63
80627;BME280;69982;51.758;5.784;2024-03-06T08:08:52;102151.05;;;5.37;83.62
80627;BME280;69982;51.758;5.784;2024-03-06T08:11:18;102155.63;;;5.33;83.85
80627;BME280;69982;51.758;5.784;2024-03-06T08:13:57;102158.31;;;5.33;83.87
80627;BME280;69982;51.758;5.784;2024-03-06T08:16:26;102156.98;;;5.37;83.61
80627;BME280;69982;51.758;5.784;2024-03-06T08:19:13;102160.09;;;5.44;83.57
80627;BME280;69982;51.758;5.784;2024-03-06T08:21:44;102164.44;;;5.51;83.62
80627;BME280;69982;51.758;5.784;2024-03-06T08:24:23;102171.16;;;5.59;83.58
80627;BME280;69982;51.758;5.784;2024-03-06T08:26:50;102172.48;;;5.63;83.74
80627;BME280;69982;51.758;5.784;2024-03-06T08:29:22;102178.89;;;5.69;83.66
80627;BME280;69982;51.758;5.784;2024-03-06T08:32:12;102183.59;;;5.74;83.27
80627;BME280;69982;51.758;5.784;2024-03-06T08:34:39;102184.38;;;5.76;82.79
80627;BME280;69982;51.758;5.784;2024-03-06T08:37:06;102186.66;;;5.77;82.87
80627;BME280;69982;51.758;5.784;2024-03-06T08:39:34;102189.97;;;5.78;82.90
80627;BME280;69982;51.758;5.784;2024-03-06T08:42:03;102188.02;;;5.78;82.78
80627;BME280;69982;51.758;5.784;2024-03-06T08:44:40;102190.92;;;5.80;82.49
80627;BME280;69982;51.758;5.784;2024-03-06T08:47:15;102191.15;;;5.85;82.36
80627;BME280;69982;51.758;5.784;2024-03-06T08:49:41;102194.84;;;5.90;82.38
80627;BME280;69982;51.758;5.784;2024-03-06T08:52:08;102198.90;;;5.93;82.55
80627;BME280;69982;51.758;5.784;2024-03-06T08:54:40;102199.11;;;5.98;82.45
80627;BME280;69982;51.758;5.784;2024-03-06T08:57:15;102204.96;;;6.04;82.14
80627;BME280;69982;51.758;5.784;2024-03-06T08:59:42;102206.97;;;6.12;82.17
80627;BME280;69982;51.758;5.784;2024-03-06T09:02:22;102214.06;;;6.16;82.27
80627;BME280;69982;51.758;5.784;2024-03-06T09:04:48;102213.88;;;6.19;82.28
80627;BME280;69982;51.758;5.784;2024-03-06T09:07:15;102216.64;;;6.21;82.10
80627;BME280;69982;51.758;5.784;2024-03-06T09:09:46;102217.01;;;6.23;82.09
80627;BME280;69982;51.758;5.784;2024-03-06T09:12:13;102220.64;;;6.25;82.30
80627;BME280;69982;51.758;5.784;2024-03-06T09:14:43;102221.58;;;6.27;82.24
80627;BME280;69982;51.758;5.784;2024-03-06T09:17:14;102227.09;;;6.31;82.06
80627;BME280;69982;51.758;5.784;2024-03-06T09:19:41;102235.39;;;6.35;81.78
80627;BME280;69982;51.758;5.784;2024-03-06T09:22:18;102238.91;;;6.42;81.98
80627;BME280;69982;51.758;5.784;2024-03-06T09:25:07;102238.50;;;6.50;82.22
80627;BME280;69982;51.758;5.784;2024-03-06T09:27:44;102241.84;;;6.62;81.88
80627;BME280;69982;51.758;5.784;2024-03-06T09:30:33;102243.00;;;6.74;81.99
80627;BME280;69982;51.758;5.784;2024-03-06T09:33:08;102244.21;;;6.82;81.48
80627;BME280;69982;51.758;5.784;2024-03-06T09:35:39;102244.58;;;6.87;82.25
80627;BME280;69982;51.758;5.784;2024-03-06T09:38:39;102244.31;;;6.93;82.68
80627;BME280;69982;51.758;5.784;2024-03-06T09:41:35;102245.31;;;6.99;82.76
80627;BME280;69982;51.758;5.784;2024-03-06T09:44:21;102251.82;;;7.01;81.55
80627;BME280;69982;51.758;5.784;2024-03-06T09:47:32;102259.83;;;7.00;81.74
80627;BME280;69982;51.758;5.784;2024-03-06T09:50:08;102266.02;;;6.99;82.00
80627;BME280;69982;51.758;5.784;2024-03-06T09:52:39;102266.89;;;7.02;81.93
80627;BME280;69982;51.758;5.784;2024-03-06T09:55:10;102264.34;;;7.07;81.95
80627;BME280;69982;51.758;5.784;2024-03-06T09:57:40;102269.94;;;7.15;82.27
80627;BME280;69982;51.758;5.784;2024-03-06T10:00:16;102271.66;;;7.24;82.73
80627;BME280;69982;51.758;5.784;2024-03-06T10:02:59;102275.06;;;7.34;81.91
80627;BME280;69982;51.758;5.784;2024-03-06T10:05:51;102278.31;;;7.44;81.80
80627;BME280;69982;51.758;5.784;2024-03-06T10:08:23;102278.48;;;7.52;81.60
80627;BME280;69982;51.758;5.784;2024-03-06T10:11:17;102278.86;;;7.56;81.26
80627;BME280;69982;51.758;5.784;2024-03-06T10:14:26;102280.48;;;7.61;81.06
80627;BME280;69982;51.758;5.784;2024-03-06T10:17:28;102282.15;;;7.65;81.52
80627;BME280;69982;51.758;5.784;2024-03-06T10:20:19;102284.31;;;7.68;81.02
80627;BME280;69982;51.758;5.784;2024-03-06T10:23:07;102289.27;;;7.69;80.78
80627;BME280;69982;51.758;5.784;2024-03-06T10:25:39;102288.98;;;7.68;81.15
80627;BME280;69982;51.758;5.784;2024-03-06T10:28:12;102292.42;;;7.73;81.70
80627;BME280;69982;51.758;5.784;2024-03-06T10:31:27;102289.60;;;7.82;81.70
80627;BME280;69982;51.758;5.784;2024-03-06T10:34:05;102289.02;;;7.92;81.09
80627;BME280;69982;51.758;5.784;2024-03-06T10:36:40;102290.27;;;8.02;80.75
80627;BME280;69982;51.758;5.784;2024-03-06T10:39:12;102290.63;;;8.11;80.72
80627;BME280;69982;51.758;5.784;2024-03-06T10:41:54;102291.61;;;8.22;80.43
80627;BME280;69982;51.758;5.784;2024-03-06T10:44:34;102294.71;;;8.31;80.32
80627;BME280;69982;51.758;5.784;2024-03-06T10:47:10;102297.59;;;8.39;80.02
80627;BME280;69982;51.758;5.784;2024-03-06T10:49:41;102300.16;;;8.46;79.79
80627;BME280;69982;51.758;5.784;2024-03-06T10:52:32;102303.23;;;8.48;79.71
80627;BME280;69982;51.758;5.784;2024-03-06T10:55:26;102304.88;;;8.48;79.71
80627;BME280;69982;51.758;5.784;2024-03-06T10:58:00;102307.46;;;8.47;79.78
80627;BME280;69982;51.758;5.784;2024-03-06T11:00:55;102308.83;;;8.48;79.74
80627;BME280;69982;51.758;5.784;2024-03-06T11:03:28;102303.70;;;8.51;79.76
80627;BME280;69982;51.758;5.784;2024-03-06T11:06:05;102303.58;;;8.55;79.77
80627;BME280;69982;51.758;5.784;2024-03-06T11:08:43;102307.25;;;8.62;79.42
80627;BME280;69982;51.758;5.784;2024-03-06T11:11:24;102305.09;;;8.71;80.05
80627;BME280;69982;51.758;5.784;2024-03-06T11:14:04;102309.77;;;8.83;80.28
80627;BME280;69982;51.758;5.784;2024-03-06T11:17:16;102308.61;;;8.92;79.94
80627;BME280;69982;51.758;5.784;2024-03-06T11:20:20;102305.63;;;9.07;80.44
80627;BME280;69982;51.758;5.784;2024-03-06T11:23:16;102310.17;;;9.23;80.91
80627;BME280;69982;51.758;5.784;2024-03-06T11:28:28;102307.44;;;9.59;80.59
80627;BME280;69982;51.758;5.784;2024-03-06T11:31:18;102304.06;;;9.72;79.28
80627;BME280;69982;51.758;5.784;2024-03-06T11:33:55;102306.95;;;9.92;79.03
80627;BME280;69982;51.758;5.784;2024-03-06T11:36:29;102311.23;;;10.14;78.97
80627;BME280;69982;51.758;5.784;2024-03-06T11:39:06;102310.02;;;10.40;78.57
80627;BME280;69982;51.758;5.784;2024-03-06T11:41:49;102311.40;;;10.68;78.57
80627;BME280;69982;51.758;5.784;2024-03-06T11:44:28;102314.23;;;10.96;77.71
80627;BME280;69982;51.758;5.784;2024-03-06T11:47:03;102310.95;;;11.19;77.80
80627;BME280;69982;51.758;5.784;2024-03-06T11:49:52;102310.09;;;11.49;77.58
80627;BME280;69982;51.758;5.784;2024-03-06T11:52:24;102307.14;;;11.76;75.86
80627;BME280;69982;51.758;5.784;2024-03-06T11:55:12;102312.71;;;12.03;75.43
80627;BME280;69982;51.758;5.784;2024-03-06T11:57:47;102312.96;;;12.26;74.55
80627;BME280;69982;51.758;5.784;2024-03-06T12:00:30;102315.05;;;12.54;73.75
80627;BME280;69982;51.758;5.784;2024-03-06T12:03:08;102314.38;;;12.80;72.87
80627;BME280;69982;51.758;5.784;2024-03-06T12:05:41;102315.16;;;13.05;71.13
80627;BME280;69982;51.758;5.784;2024-03-06T12:08:08;102310.64;;;13.27;69.02
80627;BME280;69982;51.758;5.784;2024-03-06T12:10:48;102308.70;;;13.51;67.89
80627;BME280;69982;51.758;5.784;2024-03-06T12:13:25;102308.20;;;13.73;67.68
80627;BME280;69982;51.758;5.784;2024-03-06T12:15:56;102308.59;;;13.92;66.71
80627;BME280;69982;51.758;5.784;2024-03-06T12:18:28;102306.70;;;14.08;66.63
80627;BME280;69982;51.758;5.784;2024-03-06T12:21:12;102309.76;;;14.28;65.30
80627;BME280;69982;51.758;5.784;2024-03-06T12:24:08;102310.10;;;14.48;64.75
80627;BME280;69982;51.758;5.784;2024-03-06T12:27:03;102312.55;;;14.69;64.91
80627;BME280;69982;51.758;5.784;2024-03-06T12:29:55;102312.62;;;14.89;62.99
80627;BME280;69982;51.758;5.784;2024-03-06T12:32:29;102312.04;;;15.05;62.99
80627;BME280;69982;51.758;5.784;2024-03-06T12:35:24;102310.64;;;15.20;60.25
80627;BME280;69982;51.758;5.784;2024-03-06T12:38:14;102311.65;;;15.33;60.03
80627;BME280;69982;51.758;5.784;2024-03-06T12:41:08;102309.69;;;15.50;60.03
80627;BME280;69982;51.758;5.784;2024-03-06T12:43:48;102308.78;;;15.67;60.61
80627;BME280;69982;51.758;5.784;2024-03-06T12:46:50;102302.23;;;15.87;60.71
80627;BME280;69982;51.758;5.784;2024-03-06T12:49:21;102305.73;;;16.07;59.99
80627;BME280;69982;51.758;5.784;2024-03-06T12:52:03;102302.20;;;16.16;58.25
80627;BME280;69982;51.758;5.784;2024-03-06T12:55:04;102298.20;;;16.22;58.18
80627;BME280;69982;51.758;5.784;2024-03-06T12:58:44;102302.84;;;16.41;57.70
80627;BME280;69982;51.758;5.784;2024-03-06T13:01:58;102301.52;;;16.55;57.16
80627;BME280;69982;51.758;5.784;2024-03-06T13:05:42;102293.69;;;16.66;55.22
80627;BME280;69982;51.758;5.784;2024-03-06T13:10:09;102293.31;;;16.76;56.04
80627;BME280;69982;51.758;5.784;2024-03-06T13:16:10;102288.77;;;17.12;51.53
80627;BME280;69982;51.758;5.784;2024-03-06T13:19:02;102294.16;;;17.25;52.79
80627;BME280;69982;51.758;5.784;2024-03-06T13:21:34;102294.27;;;17.42;51.71
80627;BME280;69982;51.758;5.784;2024-03-06T13:24:02;102290.27;;;17.55;51.29
80627;BME280;69982;51.758;5.784;2024-03-06T13:26:29;102290.21;;;17.61;49.07
80627;BME280;69982;51.758;5.784;2024-03-06T13:28:56;102295.61;;;17.69;49.51
80627;BME280;69982;51.758;5.784;2024-03-06T13:31:23;102291.65;;;17.81;49.28
80627;BME280;69982;51.758;5.784;2024-03-06T13:33:50;102289.23;;;17.87;49.09
80627;BME280;69982;51.758;5.784;2024-03-06T13:36:17;102293.10;;;18.01;48.92
80627;BME280;69982;51.758;5.784;2024-03-06T13:38:44;102297.80;;;18.22;49.05
80627;BME280;69982;51.758;5.784;2024-03-06T13:41:13;102300.17;;;18.39;46.47
80627;BME280;69982;51.758;5.784;2024-03-06T13:43:40;102303.21;;;18.52;46.48
80627;BME280;69982;51.758;5.784;2024-03-06T13:46:15;102304.20;;;18.62;46.29
80627;BME280;69982;51.758;5.784;2024-03-06T13:48:44;102300.75;;;18.68;46.37
80627;BME280;69982;51.758;5.784;2024-03-06T13:51:28;102300.23;;;18.78;45.07
80627;BME280;69982;51.758;5.784;2024-03-06T13:53:59;102298.73;;;18.85;44.49
80627;BME280;69982;51.758;5.784;2024-03-06T13:56:31;102297.77;;;18.96;45.15
80627;BME280;69982;51.758;5.784;2024-03-06T13:59:10;102304.30;;;19.14;45.94
80627;BME280;69982;51.758;5.784;2024-03-06T14:01:37;102302.98;;;19.34;47.17
80627;BME280;69982;51.758;5.784;2024-03-06T14:04:28;102304.10;;;19.49;46.91
80627;BME280;69982;51.758;5.784;2024-03-06T14:07:03;102300.13;;;19.66;46.94
80627;BME280;69982;51.758;5.784;2024-03-06T14:09:38;102305.52;;;19.79;48.20
80627;BME280;69982;51.758;5.784;2024-03-06T14:12:11;102305.40;;;19.88;48.63
80627;BME280;69982;51.758;5.784;2024-03-06T14:14:49;102302.12;;;19.97;48.66
80627;BME280;69982;51.758;5.784;2024-03-06T14:17:21;102308.86;;;19.93;48.08
80627;BME280;69982;51.758;5.784;2024-03-06T14:19:50;102306.80;;;19.82;47.62
80627;BME280;69982;51.758;5.784;2024-03-06T14:22:26;102305.27;;;19.66;48.00
80627;BME280;69982;51.758;5.784;2024-03-06T14:24:56;102308.45;;;19.54;48.44
80627;BME280;69982;51.758;5.784;2024-03-06T14:27:29;102311.07;;;19.36;48.58